createdAt,value
2022-11-17T00:01:21.202Z,98928.59
2022-11-17T00:03:49.511Z,98911.66
2022-11-17T00:06:17.373Z,98919.97
2022-11-17T00:08:43.753Z,98917.00
2022-11-17T00:11:10.282Z,98912.78
2022-11-17T00:13:55.224Z,98900.88
2022-11-17T00:16:22.276Z,98895.28
2022-11-17T00:19:07.260Z,98888.78
2022-11-17T00:21:34.150Z,98879.91
2022-11-17T00:24:00.550Z,98873.00
2022-11-17T00:26:30.126Z,98876.44
2022-11-17T00:28:58.852Z,98863.72
2022-11-17T00:31:45.614Z,98850.31
2022-11-17T00:34:18.769Z,98847.31
2022-11-17T00:36:48.801Z,98835.41
2022-11-17T00:39:17.032Z,98819.94
2022-11-17T00:41:43.746Z,98801.41
2022-11-17T00:44:10.338Z,98803.06
2022-11-17T00:46:37.835Z,98788.00
2022-11-17T00:49:05.617Z,98783.50
2022-11-17T00:51:32.383Z,98782.66
2022-11-17T00:53:59.326Z,98772.00
2022-11-17T00:56:26.080Z,98776.56
2022-11-17T00:58:53.195Z,98752.94
2022-11-17T01:01:20.250Z,98746.75
2022-11-17T01:03:46.881Z,98764.88
2022-11-17T01:06:16.773Z,98756.16
2022-11-17T01:08:43.426Z,98742.44
2022-11-17T01:11:17.244Z,98748.34
2022-11-17T01:13:45.412Z,98751.16
2022-11-17T01:16:14.703Z,98739.88
2022-11-17T01:18:42.721Z,98749.06
2022-11-17T01:21:10.395Z,98732.50
2022-11-17T01:23:38.463Z,98737.44
2022-11-17T01:26:07.617Z,98735.88
2022-11-17T01:28:34.646Z,98731.16
2022-11-17T01:31:03.556Z,98720.78
2022-11-17T01:33:30.342Z,98715.28
2022-11-17T01:36:01.041Z,98707.88
2022-11-17T01:38:27.607Z,98696.13
2022-11-17T01:40:54.107Z,98694.91
2022-11-17T01:43:44.622Z,98694.25
2022-11-17T01:46:26.052Z,98686.69
2022-11-17T01:48:56.365Z,98671.47
2022-11-17T01:51:23.267Z,98657.59
2022-11-17T01:53:51.215Z,98675.38
2022-11-17T01:56:26.449Z,98672.63
2022-11-17T01:59:01.570Z,98656.06
2022-11-17T02:01:28.048Z,98656.91
2022-11-17T02:03:54.964Z,98643.88
2022-11-17T02:06:32.023Z,98641.19
2022-11-17T02:09:00.862Z,98645.19
2022-11-17T02:11:29.733Z,98635.34
2022-11-17T02:13:56.663Z,98632.16
2022-11-17T02:16:23.006Z,98625.28
2022-11-17T02:18:49.461Z,98620.78
2022-11-17T02:21:50.176Z,98608.25
2022-11-17T02:24:35.147Z,98607.09
2022-11-17T02:27:25.753Z,98594.50
2022-11-17T02:30:05.004Z,98583.00
2022-11-17T02:32:57.739Z,98587.50
2022-11-17T02:35:30.037Z,98586.00
2022-11-17T02:38:28.929Z,98578.66
2022-11-17T02:41:22.875Z,98572.50
2022-11-17T02:44:15.069Z,98569.47
2022-11-17T02:46:48.354Z,98570.13
2022-11-17T02:49:25.735Z,98570.13
2022-11-17T02:51:55.263Z,98549.13
2022-11-17T02:54:23.899Z,98556.63
2022-11-17T02:56:50.300Z,98547.56
2022-11-17T02:59:21.529Z,98546.06
2022-11-17T03:02:18.496Z,98541.94
2022-11-17T03:04:53.700Z,98535.38
2022-11-17T03:07:38.360Z,98552.56
2022-11-17T03:10:19.430Z,98553.44
2022-11-17T03:12:55.141Z,98535.56
2022-11-17T03:15:43.157Z,98529.72
2022-11-17T03:18:23.106Z,98526.38
2022-11-17T03:21:03.918Z,98519.72
2022-11-17T03:23:42.129Z,98526.06
2022-11-17T03:26:15.626Z,98517.19
2022-11-17T03:28:43.712Z,98512.88
2022-11-17T03:31:13.198Z,98511.03
2022-11-17T03:33:41.590Z,98504.03
2022-11-17T03:36:15.197Z,98502.19
2022-11-17T03:38:49.865Z,98507.34
2022-11-17T03:41:20.412Z,98506.72
2022-11-17T03:43:49.519Z,98510.34
2022-11-17T03:46:19.314Z,98498.63
2022-11-17T03:48:55.115Z,98496.81
2022-11-17T03:51:25.020Z,98493.47
2022-11-17T03:53:53.661Z,98490.44
2022-11-17T03:57:01.355Z,98481.91
2022-11-17T03:59:43.879Z,98471.34
2022-11-17T04:02:16.880Z,98463.03
2022-11-17T04:05:01.714Z,98462.84
2022-11-17T04:07:28.086Z,98461.31
2022-11-17T04:09:54.444Z,98456.66
2022-11-17T04:12:39.166Z,98454.13
2022-11-17T04:15:24.893Z,98457.63
2022-11-17T04:17:51.505Z,98462.31
2022-11-17T04:20:17.845Z,98442.44
2022-11-17T04:22:44.191Z,98441.94
2022-11-17T04:25:30.605Z,98438.94
2022-11-17T04:28:15.340Z,98445.09
2022-11-17T04:30:41.713Z,98432.94
2022-11-17T04:33:08.056Z,98430.97
2022-11-17T04:35:34.399Z,98425.56
2022-11-17T04:38:00.729Z,98417.53
2022-11-17T04:40:27.069Z,98414.19
2022-11-17T04:42:53.422Z,98406.22
2022-11-17T04:45:19.759Z,98411.72
2022-11-17T04:47:46.090Z,98402.06
2022-11-17T04:50:12.485Z,98413.44
2022-11-17T04:52:38.854Z,98413.09
2022-11-17T04:55:05.615Z,98413.56
2022-11-17T04:57:31.971Z,98412.72
2022-11-17T04:59:58.364Z,98409.72
2022-11-17T05:02:24.759Z,98410.41
2022-11-17T05:04:56.888Z,98408.91
2022-11-17T05:07:24.188Z,98402.22
2022-11-17T05:09:50.586Z,98404.03
2022-11-17T05:12:35.629Z,98402.72
2022-11-17T05:15:02.040Z,98402.25
2022-11-17T05:17:28.392Z,98390.38
2022-11-17T05:19:56.118Z,98396.72
2022-11-17T05:22:42.085Z,98396.06
2022-11-17T05:25:09.623Z,98397.72
2022-11-17T05:27:36.301Z,98393.53
2022-11-17T05:30:05.658Z,98393.41
2022-11-17T05:32:32.089Z,98400.75
2022-11-17T05:34:58.460Z,98402.41
2022-11-17T05:37:24.812Z,98400.44
2022-11-17T05:39:51.157Z,98394.72
2022-11-17T05:42:17.574Z,98393.41
2022-11-17T05:44:44.027Z,98400.59
2022-11-17T05:47:10.382Z,98410.16
2022-11-17T05:49:36.773Z,98411.13
2022-11-17T05:52:03.118Z,98412.97
2022-11-17T05:54:29.451Z,98401.28
2022-11-17T05:57:01.921Z,98405.44
2022-11-17T05:59:35.672Z,98410.78
2022-11-17T06:02:23.691Z,98400.59
2022-11-17T06:04:51.517Z,98394.59
2022-11-17T06:07:19.320Z,98386.56
2022-11-17T06:09:46.491Z,98384.03
2022-11-17T06:12:13.006Z,98378.66
2022-11-17T06:14:39.712Z,98376.81
2022-11-17T06:17:28.969Z,98380.03
2022-11-17T06:20:00.481Z,98373.81
2022-11-17T06:22:27.498Z,98369.97
2022-11-17T06:24:54.332Z,98374.16
2022-11-17T06:27:20.841Z,98372.31
2022-11-17T06:29:48.052Z,98376.50
2022-11-17T06:32:15.801Z,98369.97
2022-11-17T06:34:47.954Z,98379.00
2022-11-17T06:37:17.033Z,98376.34
2022-11-17T06:39:43.362Z,98381.00
2022-11-17T06:42:09.727Z,98375.50
2022-11-17T06:44:36.101Z,98378.53
2022-11-17T06:47:02.581Z,98379.00
2022-11-17T06:49:29.171Z,98381.53
2022-11-17T06:51:55.645Z,98390.53
2022-11-17T06:54:21.986Z,98392.72
2022-11-17T06:56:49.610Z,98388.03
2022-11-17T06:59:16.061Z,98392.03
2022-11-17T07:01:43.290Z,98391.88
2022-11-17T07:04:09.799Z,98388.06
2022-11-17T07:06:37.018Z,98391.56
2022-11-17T07:09:04.642Z,98389.91
2022-11-17T07:11:31.055Z,98392.75
2022-11-17T07:13:58.198Z,98398.59
2022-11-17T07:16:24.599Z,98400.78
2022-11-17T07:18:52.741Z,98398.09
2022-11-17T07:21:19.137Z,98406.47
2022-11-17T07:23:46.018Z,98406.13
2022-11-17T07:26:12.719Z,98404.47
2022-11-17T07:28:39.184Z,98409.63
2022-11-17T07:31:07.687Z,98412.50
2022-11-17T07:33:34.521Z,98410.66
2022-11-17T07:36:09.692Z,98420.19
2022-11-17T07:38:38.120Z,98416.84
2022-11-17T07:41:05.933Z,98422.88
2022-11-17T07:43:33.865Z,98420.69
2022-11-17T07:46:04.978Z,98424.53
2022-11-17T07:48:32.429Z,98429.13
2022-11-17T07:50:59.847Z,98437.78
2022-11-17T07:53:26.770Z,98439.31
2022-11-17T07:55:53.205Z,98442.66
2022-11-17T07:58:19.558Z,98452.38
2022-11-17T08:00:45.962Z,98460.91
2022-11-17T08:03:12.468Z,98471.09
2022-11-17T08:05:43.351Z,98476.63
2022-11-17T08:08:10.195Z,98491.66
2022-11-17T08:10:36.686Z,98491.97
2022-11-17T08:13:03.629Z,98492.31
2022-11-17T08:15:30.760Z,98497.66
2022-11-17T08:18:00.064Z,98504.38
2022-11-17T08:20:29.026Z,98498.16
2022-11-17T08:22:56.006Z,98503.69
2022-11-17T08:25:24.261Z,98496.84
2022-11-17T08:27:59.824Z,98504.03
2022-11-17T08:30:26.941Z,98508.84
2022-11-17T08:32:54.316Z,98519.56
2022-11-17T08:35:23.621Z,98505.66
2022-11-17T08:37:50.179Z,98502.31
2022-11-17T08:40:18.005Z,98519.19
2022-11-17T08:42:44.950Z,98515.00
2022-11-17T08:45:11.389Z,98509.00
2022-11-17T08:47:38.665Z,98526.19
2022-11-17T08:50:06.328Z,98523.41
2022-11-17T08:52:32.703Z,98526.75
2022-11-17T08:54:59.085Z,98525.22
2022-11-17T08:57:25.490Z,98530.44
2022-11-17T08:59:51.853Z,98534.41
2022-11-17T09:02:18.250Z,98539.41
2022-11-17T09:04:46.009Z,98534.94
2022-11-17T09:07:12.680Z,98543.31
2022-11-17T09:09:39.315Z,98550.28
2022-11-17T09:12:06.270Z,98559.34
2022-11-17T09:14:32.646Z,98554.78
2022-11-17T09:16:59.210Z,98557.47
2022-11-17T09:19:25.694Z,98555.50
2022-11-17T09:21:52.033Z,98558.19
2022-11-17T09:24:18.384Z,98556.50
2022-11-17T09:26:44.845Z,98570.34
2022-11-17T09:29:11.503Z,98577.03
2022-11-17T09:31:38.404Z,98577.59
2022-11-17T09:34:05.785Z,98578.72
2022-11-17T09:36:33.527Z,98574.69
2022-11-17T09:38:59.871Z,98581.09
2022-11-17T09:41:40.991Z,98572.44
2022-11-17T09:44:23.531Z,98581.78
2022-11-17T09:47:03.081Z,98585.34
2022-11-17T09:49:58.785Z,98584.66
2022-11-17T09:52:28.694Z,98590.88
2022-11-17T09:54:58.505Z,98582.53
2022-11-17T09:57:31.016Z,98592.41
2022-11-17T10:00:13.642Z,98586.72
2022-11-17T10:02:41.054Z,98587.56
2022-11-17T10:05:13.273Z,98585.72
2022-11-17T10:07:47.862Z,98585.09
2022-11-17T10:10:20.596Z,98591.75
2022-11-17T10:12:52.226Z,98597.16
2022-11-17T10:15:25.344Z,98594.28
2022-11-17T10:17:51.999Z,98603.16
2022-11-17T10:20:18.909Z,98597.50
2022-11-17T10:22:46.813Z,98600.69
2022-11-17T10:25:33.636Z,98604.69
2022-11-17T10:27:59.970Z,98606.53
2022-11-17T10:30:26.393Z,98609.06
2022-11-17T10:32:55.494Z,98608.03
2022-11-17T10:35:27.505Z,98611.06
2022-11-17T10:37:57.562Z,98607.53
2022-11-17T10:40:45.683Z,98613.56
2022-11-17T10:43:12.043Z,98616.09
2022-11-17T10:45:46.369Z,98620.78
2022-11-17T10:48:26.345Z,98631.16
2022-11-17T10:51:00.451Z,98620.94
2022-11-17T10:53:28.945Z,98622.44
2022-11-17T10:56:17.608Z,98623.28
2022-11-17T10:59:01.066Z,98620.75
2022-11-17T11:01:42.313Z,98635.69
2022-11-17T11:04:39.490Z,98618.94
2022-11-17T11:07:20.963Z,98635.66
2022-11-17T11:09:57.710Z,98644.38
2022-11-17T11:12:41.316Z,98629.78
2022-11-17T11:15:16.154Z,98631.31
2022-11-17T11:17:42.577Z,98639.84
2022-11-17T11:20:15.264Z,98643.72
2022-11-17T11:23:03.395Z,98627.97
2022-11-17T11:25:51.352Z,98632.81
2022-11-17T11:28:47.028Z,98634.50
2022-11-17T11:31:26.641Z,98639.38
2022-11-17T11:33:55.979Z,98636.00
2022-11-17T11:36:44.408Z,98632.00
2022-11-17T11:39:25.922Z,98643.56
2022-11-17T11:42:10.490Z,98648.25
2022-11-17T11:44:56.583Z,98651.28
2022-11-17T11:47:46.385Z,98651.94
2022-11-17T11:50:12.689Z,98646.41
2022-11-17T11:52:44.728Z,98649.56
2022-11-17T11:55:26.218Z,98651.63
2022-11-17T11:58:04.357Z,98663.66
2022-11-17T12:00:31.207Z,98663.84
2022-11-17T12:03:02.950Z,98668.19
2022-11-17T12:05:37.639Z,98667.34
2022-11-17T12:08:31.905Z,98679.25
2022-11-17T12:11:29.493Z,98683.44
2022-11-17T12:13:57.622Z,98683.13
2022-11-17T12:16:30.749Z,98695.16
2022-11-17T12:18:57.101Z,98689.81
2022-11-17T12:21:25.550Z,98693.00
2022-11-17T12:24:15.593Z,98680.59
2022-11-17T12:26:42.104Z,98688.97
2022-11-17T12:29:20.999Z,98684.28
2022-11-17T12:31:52.195Z,98678.94
2022-11-17T12:34:25.142Z,98679.75
2022-11-17T12:37:22.854Z,98680.09
2022-11-17T12:40:18.332Z,98685.09
2022-11-17T12:43:16.735Z,98679.09
2022-11-17T12:45:52.236Z,98685.97
2022-11-17T12:48:33.873Z,98696.00
2022-11-17T12:51:28.424Z,98692.00
2022-11-17T12:54:20.817Z,98695.81
2022-11-17T12:56:53.669Z,98692.50
2022-11-17T12:59:44.318Z,98706.41
2022-11-17T13:02:16.732Z,98706.72
2022-11-17T13:04:49.572Z,98706.38
2022-11-17T13:07:25.398Z,98719.63
2022-11-17T13:09:56.716Z,98724.97
2022-11-17T13:12:25.962Z,98725.31
2022-11-17T13:15:04.912Z,98726.78
2022-11-17T13:17:34.784Z,98730.97
2022-11-17T13:20:17.676Z,98731.13
2022-11-17T13:22:59.205Z,98727.78
2022-11-17T13:25:25.640Z,98737.69
2022-11-17T13:27:57.246Z,98741.69
2022-11-17T13:30:31.226Z,98737.69
2022-11-17T13:33:01.307Z,98737.16
2022-11-17T13:35:35.234Z,98734.47
2022-11-17T13:38:13.588Z,98735.66
2022-11-17T13:40:42.181Z,98738.97
2022-11-17T13:43:13.288Z,98731.75
2022-11-17T13:45:40.466Z,98740.28
2022-11-17T13:48:06.869Z,98740.94
2022-11-17T13:50:36.878Z,98734.09
2022-11-17T13:53:05.828Z,98744.13
2022-11-17T13:55:33.887Z,98741.16
2022-11-17T13:58:06.660Z,98745.84
2022-11-17T14:00:33.651Z,98749.19
2022-11-17T14:03:05.832Z,98744.38
2022-11-17T14:05:33.598Z,98740.88
2022-11-17T14:08:27.342Z,98735.31
2022-11-17T14:11:06.523Z,98745.06
2022-11-17T14:13:39.454Z,98742.38
2022-11-17T14:16:19.132Z,98737.84
2022-11-17T14:18:56.082Z,98747.88
2022-11-17T14:21:22.622Z,98745.88
2022-11-17T14:23:48.983Z,98743.53
2022-11-17T14:26:24.123Z,98745.75
2022-11-17T14:28:51.606Z,98748.38
2022-11-17T14:31:18.777Z,98747.53
2022-11-17T14:33:45.444Z,98754.94
2022-11-17T14:36:14.272Z,98757.44
2022-11-17T14:38:41.025Z,98754.59
2022-11-17T14:41:07.472Z,98758.28
2022-11-17T14:43:33.829Z,98754.75
2022-11-17T14:46:00.241Z,98759.97
2022-11-17T14:48:26.746Z,98764.50
2022-11-17T14:50:59.747Z,98762.66
2022-11-17T14:53:26.761Z,98767.19
2022-11-17T14:55:53.463Z,98770.53
2022-11-17T14:58:20.317Z,98771.41
2022-11-17T15:00:46.818Z,98768.06
2022-11-17T15:03:13.347Z,98778.44
2022-11-17T15:05:45.348Z,98773.06
2022-11-17T15:08:12.182Z,98785.59
2022-11-17T15:10:43.851Z,98780.59
2022-11-17T15:13:10.244Z,98784.78
2022-11-17T15:15:36.633Z,98784.97
2022-11-17T15:18:03.040Z,98786.13
2022-11-17T15:20:29.788Z,98797.50
2022-11-17T15:23:01.859Z,98786.63
2022-11-17T15:25:29.537Z,98795.84
2022-11-17T15:27:56.646Z,98790.28
2022-11-17T15:30:23.049Z,98804.16
2022-11-17T15:32:49.419Z,98793.09
2022-11-17T15:35:15.913Z,98807.72
2022-11-17T15:37:42.260Z,98808.34
2022-11-17T15:40:09.250Z,98804.69
2022-11-17T15:42:35.679Z,98807.53
2022-11-17T15:45:02.009Z,98814.69
2022-11-17T15:47:28.347Z,98809.31
2022-11-17T15:49:58.313Z,98811.03
2022-11-17T15:52:41.591Z,98811.34
2022-11-17T15:55:11.500Z,98817.22
2022-11-17T15:57:37.838Z,98816.19
2022-11-17T16:00:06.666Z,98827.66
2022-11-17T16:02:33.031Z,98831.50
2022-11-17T16:04:59.376Z,98832.13
2022-11-17T16:07:25.836Z,98825.78
2022-11-17T16:09:52.717Z,98829.78
2022-11-17T16:12:19.118Z,98829.41
2022-11-17T16:14:45.561Z,98829.09
2022-11-17T16:17:11.970Z,98832.94
2022-11-17T16:19:38.281Z,98833.25
2022-11-17T16:22:04.635Z,98832.41
2022-11-17T16:24:30.976Z,98841.25
2022-11-17T16:26:57.316Z,98852.13
2022-11-17T16:29:24.700Z,98858.84
2022-11-17T16:31:51.045Z,98861.88
2022-11-17T16:34:18.748Z,98858.81
2022-11-17T16:36:45.220Z,98850.78
2022-11-17T16:39:15.337Z,98855.75
2022-11-17T16:41:45.218Z,98849.47
2022-11-17T16:44:14.210Z,98859.13
2022-11-17T16:46:46.175Z,98866.94
2022-11-17T16:49:14.997Z,98855.50
2022-11-17T16:51:47.612Z,98863.00
2022-11-17T16:54:14.033Z,98857.41
2022-11-17T16:56:40.465Z,98872.63
2022-11-17T16:59:07.283Z,98866.59
2022-11-17T17:01:35.298Z,98871.16
2022-11-17T17:04:05.012Z,98874.63
2022-11-17T17:06:31.815Z,98868.13
2022-11-17T17:09:01.162Z,98867.44
2022-11-17T17:11:29.117Z,98870.59
2022-11-17T17:13:56.530Z,98875.69
2022-11-17T17:16:23.383Z,98872.47
2022-11-17T17:18:55.128Z,98881.66
2022-11-17T17:21:21.718Z,98878.34
2022-11-17T17:23:48.074Z,98879.28
2022-11-17T17:26:19.535Z,98883.66
2022-11-17T17:28:47.258Z,98886.09
2022-11-17T17:31:21.083Z,98884.16
2022-11-17T17:33:49.880Z,98885.00
2022-11-17T17:36:21.406Z,98880.66
2022-11-17T17:38:54.968Z,98894.03
2022-11-17T17:41:23.729Z,98894.31
2022-11-17T17:43:56.283Z,98898.44
2022-11-17T17:46:22.665Z,98897.34
2022-11-17T17:48:48.998Z,98903.59
2022-11-17T17:51:18.408Z,98901.38
2022-11-17T17:53:46.227Z,98908.03
2022-11-17T17:56:14.160Z,98901.28
2022-11-17T17:58:41.283Z,98898.22
2022-11-17T18:01:14.155Z,98905.53
2022-11-17T18:03:48.298Z,98908.34
2022-11-17T18:06:17.074Z,98904.72
2022-11-17T18:08:43.452Z,98913.75
2022-11-17T18:11:16.849Z,98915.72
2022-11-17T18:13:45.140Z,98919.69
2022-11-17T18:16:14.832Z,98919.94
2022-11-17T18:18:42.198Z,98926.13
2022-11-17T18:21:14.259Z,98922.88
2022-11-17T18:23:41.273Z,98923.88
2022-11-17T18:26:16.318Z,98932.41
2022-11-17T18:28:49.623Z,98929.72
2022-11-17T18:31:16.196Z,98938.00
2022-11-17T18:33:45.136Z,98933.78
2022-11-17T18:36:12.152Z,98932.34
2022-11-17T18:38:38.838Z,98932.78
2022-11-17T18:41:07.350Z,98941.19
2022-11-17T18:43:34.631Z,98944.03
2022-11-17T18:46:08.288Z,98941.81
2022-11-17T18:48:37.035Z,98943.34
2022-11-17T18:51:19.009Z,98956.13
2022-11-17T18:53:46.153Z,98965.84
2022-11-17T18:56:14.437Z,98959.69
2022-11-17T18:58:41.901Z,98966.00
2022-11-17T19:01:11.170Z,98967.38
2022-11-17T19:03:38.737Z,98968.78
2022-11-17T19:06:07.211Z,98966.66
2022-11-17T19:08:34.848Z,98967.34
2022-11-17T19:11:05.905Z,98966.50
2022-11-17T19:13:35.377Z,98976.38
2022-11-17T19:16:25.917Z,98972.81
2022-11-17T19:18:54.678Z,98981.28
2022-11-17T19:21:20.986Z,98978.13
2022-11-17T19:23:52.456Z,98991.34
2022-11-17T19:26:21.612Z,98986.19
2022-11-17T19:28:48.535Z,98998.13
2022-11-17T19:31:17.407Z,98996.84
2022-11-17T19:33:45.523Z,99005.56
2022-11-17T19:36:17.757Z,99005.94
2022-11-17T19:38:45.498Z,99003.72
2022-11-17T19:41:14.126Z,99012.84
2022-11-17T19:43:45.084Z,99019.75
2022-11-17T19:46:14.845Z,99024.84
2022-11-17T19:48:42.351Z,99027.63
2022-11-17T19:51:14.981Z,99025.66
2022-11-17T19:53:41.614Z,99033.56
2022-11-17T19:56:08.499Z,99035.22
2022-11-17T19:58:34.971Z,99030.56
2022-11-17T20:01:08.783Z,99038.91
2022-11-17T20:03:36.163Z,99040.25
2022-11-17T20:06:02.792Z,99040.66
2022-11-17T20:08:29.875Z,99038.69
2022-11-17T20:11:09.550Z,99045.03
2022-11-17T20:13:36.994Z,99045.75
2022-11-17T20:16:11.456Z,99047.00
2022-11-17T20:18:38.564Z,99048.25
2022-11-17T20:21:06.278Z,99052.63
2022-11-17T20:23:37.139Z,99062.63
2022-11-17T20:26:10.483Z,99065.69
2022-11-17T20:28:37.782Z,99056.13
2022-11-17T20:31:19.293Z,99057.56
2022-11-17T20:33:46.589Z,99065.72
2022-11-17T20:36:18.357Z,99067.16
2022-11-17T20:38:45.472Z,99064.94
2022-11-17T20:41:11.861Z,99071.53
2022-11-17T20:43:38.303Z,99074.91
2022-11-17T20:46:04.844Z,99074.91
2022-11-17T20:48:33.891Z,99072.69
2022-11-17T20:51:10.847Z,99077.47
2022-11-17T20:53:38.019Z,99085.38
2022-11-17T20:56:06.824Z,99085.09
2022-11-17T20:58:33.919Z,99096.06
2022-11-17T21:01:10.405Z,99095.94
2022-11-17T21:03:37.107Z,99089.06
2022-11-17T21:06:05.224Z,99099.91
2022-11-17T21:08:34.495Z,99105.94
2022-11-17T21:11:03.639Z,99109.75
2022-11-17T21:13:32.659Z,99112.00
2022-11-17T21:16:13.528Z,99114.22
2022-11-17T21:18:46.120Z,99115.09
2022-11-17T21:21:13.027Z,99120.84
2022-11-17T21:23:40.453Z,99115.94
2022-11-17T21:26:09.021Z,99118.59
2022-11-17T21:28:36.775Z,99117.19
2022-11-17T21:31:07.833Z,99132.81
2022-11-17T21:33:35.547Z,99131.97
2022-11-17T21:36:07.074Z,99129.84
2022-11-17T21:38:33.886Z,99133.34
2022-11-17T21:41:20.933Z,99139.81
2022-11-17T21:43:49.582Z,99136.72
2022-11-17T21:46:21.397Z,99147.16
2022-11-17T21:48:48.974Z,99141.94
2022-11-17T21:51:18.157Z,99144.31
2022-11-17T21:53:44.829Z,99148.69
2022-11-17T21:56:11.676Z,99149.78
2022-11-17T21:58:38.119Z,99153.88
2022-11-17T22:01:13.365Z,99157.53
2022-11-17T22:03:40.998Z,99154.13
2022-11-17T22:06:15.941Z,99157.78
2022-11-17T22:08:43.060Z,99162.69
2022-11-17T22:11:11.971Z,99162.13
2022-11-17T22:13:39.189Z,99166.63
2022-11-17T22:16:07.199Z,99158.47
2022-11-17T22:18:33.764Z,99159.47
2022-11-17T22:21:00.304Z,99167.19
2022-11-17T22:23:28.338Z,99170.66
2022-11-17T22:25:56.432Z,99165.75
2022-11-17T22:28:23.775Z,99167.47
2022-11-17T22:30:51.009Z,99168.00
2022-11-17T22:33:17.949Z,99164.78
2022-11-17T22:35:45.115Z,99172.09
2022-11-17T22:38:12.629Z,99173.06
2022-11-17T22:40:39.900Z,99174.88
2022-11-17T22:43:13.289Z,99176.09
2022-11-17T22:45:41.135Z,99179.78
2022-11-17T22:48:07.797Z,99177.09
2022-11-17T22:50:37.250Z,99174.88
2022-11-17T22:53:03.711Z,99182.44
2022-11-17T22:55:30.285Z,99171.06
2022-11-17T22:57:56.692Z,99174.72
2022-11-17T23:00:23.238Z,99175.13
2022-11-17T23:02:49.725Z,99182.00
2022-11-17T23:05:16.188Z,99188.31
2022-11-17T23:07:42.653Z,99194.63
2022-11-17T23:10:09.796Z,99196.59
2022-11-17T23:12:36.378Z,99203.88
2022-11-17T23:15:02.813Z,99206.22
2022-11-17T23:17:29.175Z,99204.78
2022-11-17T23:19:55.546Z,99208.28
2022-11-17T23:22:21.946Z,99205.06
2022-11-17T23:24:48.275Z,99200.56
2022-11-17T23:27:14.661Z,99203.94
2022-11-17T23:29:41.210Z,99206.47
2022-11-17T23:32:07.613Z,99221.63
2022-11-17T23:34:33.957Z,99230.47
2022-11-17T23:37:03.692Z,99221.50
2022-11-17T23:39:30.510Z,99222.63
2022-11-17T23:41:56.901Z,99219.56
2022-11-17T23:44:23.244Z,99225.72
2022-11-17T23:46:49.630Z,99227.03
2022-11-17T23:49:16.328Z,99226.78
2022-11-17T23:51:43.066Z,99226.53
2022-11-17T23:54:13.079Z,99230.75
2022-11-17T23:56:39.990Z,99228.31
2022-11-17T23:59:07.958Z,99232.69
